createdAt,value
2016-05-24T00:00:25.466Z,0
2016-05-24T00:01:26.218Z,0
2016-05-24T00:02:25.847Z,0
2016-05-24T00:03:25.443Z,0
2016-05-24T00:04:25.446Z,0
2016-05-24T00:05:39.745Z,0
2016-05-24T00:06:25.732Z,0
2016-05-24T00:07:25.516Z,0
2016-05-24T00:08:25.706Z,0
2016-05-24T00:10:25.572Z,0
2016-05-24T00:11:25.542Z,0
2016-05-24T00:12:25.795Z,0
2016-05-24T00:13:25.783Z,0
2016-05-24T00:14:40.472Z,0
2016-05-24T00:15:25.663Z,0
2016-05-24T00:16:39.666Z,0
2016-05-24T00:17:25.653Z,0
2016-05-24T00:18:25.608Z,0
2016-05-24T00:19:26.064Z,0
2016-05-24T00:20:25.614Z,0
2016-05-24T00:22:53.963Z,0
2016-05-24T00:23:25.653Z,0
2016-05-24T00:24:25.687Z,0
2016-05-24T00:25:25.674Z,0
2016-05-24T00:27:25.680Z,0
2016-05-24T00:28:25.666Z,0
2016-05-24T00:29:25.904Z,0
2016-05-24T00:30:25.921Z,0
2016-05-24T00:31:25.707Z,0
2016-05-24T00:32:25.912Z,0
2016-05-24T00:33:25.727Z,0
2016-05-24T00:34:25.729Z,0
2016-05-24T00:35:27.154Z,0
2016-05-24T00:36:26.156Z,0
2016-05-24T00:37:26.378Z,0
2016-05-24T00:38:26.178Z,0
2016-05-24T00:39:25.978Z,0
2016-05-24T00:40:25.496Z,0
2016-05-24T00:41:26.405Z,0
2016-05-24T00:42:26.001Z,0
2016-05-24T00:43:26.019Z,0
2016-05-24T00:44:26.866Z,0
2016-05-24T00:45:39.869Z,0
2016-05-24T00:46:26.278Z,0
2016-05-24T00:48:26.142Z,0
2016-05-24T00:49:25.864Z,0
2016-05-24T00:50:25.351Z,0
2016-05-24T00:51:25.853Z,0
2016-05-24T00:52:26.513Z,0
2016-05-24T00:53:25.905Z,0
2016-05-24T00:54:25.440Z,0
2016-05-24T00:55:25.927Z,0
2016-05-24T00:56:25.946Z,0
2016-05-24T00:57:25.963Z,0
2016-05-24T00:58:25.935Z,0
2016-05-24T00:59:27.015Z,0
2016-05-24T01:00:26.154Z,0
2016-05-24T01:01:26.201Z,0
2016-05-24T01:02:25.888Z,0
2016-05-24T01:03:25.920Z,0
2016-05-24T01:04:26.106Z,0
2016-05-24T01:05:40.224Z,0
2016-05-24T01:06:26.393Z,0
2016-05-24T01:07:26.405Z,0
2016-05-24T01:08:26.013Z,0
2016-05-24T01:09:26.495Z,0
2016-05-24T01:10:26.708Z,0
2016-05-24T01:11:26.448Z,0
2016-05-24T01:12:26.502Z,0
2016-05-24T01:13:26.274Z,0
2016-05-24T01:14:26.718Z,0
2016-05-24T01:15:26.255Z,0
2016-05-24T01:16:26.337Z,0
2016-05-24T01:17:40.247Z,0
2016-05-24T01:18:26.516Z,0
2016-05-24T01:19:26.363Z,0
2016-05-24T01:20:26.305Z,0
2016-05-24T01:21:40.262Z,0
2016-05-24T01:22:26.358Z,0
2016-05-24T01:23:27.018Z,0
2016-05-24T01:24:26.551Z,0
2016-05-24T01:25:26.289Z,0
2016-05-24T01:26:26.791Z,0
2016-05-24T01:27:26.436Z,0
2016-05-24T01:28:26.610Z,0
2016-05-24T01:29:26.880Z,0
2016-05-24T01:30:26.850Z,0
2016-05-24T01:32:26.639Z,0
2016-05-24T01:33:26.875Z,0
2016-05-24T01:34:26.752Z,0
2016-05-24T01:36:26.913Z,0
2016-05-24T01:37:26.370Z,0
2016-05-24T01:38:26.530Z,0
2016-05-24T01:39:26.735Z,0
2016-05-24T01:40:40.785Z,0
2016-05-24T01:41:26.255Z,0
2016-05-24T01:42:26.930Z,0
2016-05-24T01:43:41.479Z,0
2016-05-24T01:44:26.530Z,0
2016-05-24T01:45:26.626Z,0
2016-05-24T01:46:26.769Z,0
2016-05-24T01:47:26.287Z,0
2016-05-24T01:49:40.871Z,0
2016-05-24T01:50:26.577Z,0
2016-05-24T01:51:26.657Z,0
2016-05-24T01:52:26.457Z,0
2016-05-24T01:53:26.475Z,0
2016-05-24T01:54:26.697Z,0
2016-05-24T01:55:40.496Z,0
2016-05-24T01:56:26.687Z,0
2016-05-24T01:57:26.673Z,0
2016-05-24T01:58:26.692Z,0
2016-05-24T01:59:26.461Z,0
2016-05-24T02:01:26.903Z,0
2016-05-24T02:02:26.719Z,0
2016-05-24T02:03:26.580Z,0
2016-05-24T02:04:26.927Z,0
2016-05-24T02:06:26.558Z,0
2016-05-24T02:07:26.748Z,0
2016-05-24T02:08:26.766Z,0
2016-05-24T02:09:26.487Z,0
2016-05-24T02:10:27.161Z,0
2016-05-24T02:11:26.758Z,0
2016-05-24T02:12:26.542Z,0
2016-05-24T02:13:27.405Z,0
2016-05-24T02:14:27.063Z,0
2016-05-24T02:15:41.300Z,0
2016-05-24T02:16:27.068Z,0
2016-05-24T02:17:26.868Z,0
2016-05-24T02:18:41.121Z,0
2016-05-24T02:19:41.342Z,0
2016-05-24T02:20:27.111Z,0
2016-05-24T02:21:55.004Z,0
2016-05-24T02:22:26.881Z,0
2016-05-24T02:24:26.934Z,0
2016-05-24T02:25:27.499Z,0
2016-05-24T02:26:26.939Z,0
2016-05-24T02:27:26.786Z,0
2016-05-24T02:28:27.164Z,0
2016-05-24T02:29:27.026Z,0
2016-05-24T02:30:27.372Z,4
2016-05-24T02:31:26.781Z,4
2016-05-24T02:32:27.189Z,4
2016-05-24T02:33:27.208Z,0
2016-05-24T02:34:41.069Z,4
2016-05-24T02:35:26.964Z,4
2016-05-24T02:36:26.716Z,4
2016-05-24T02:37:26.844Z,4
2016-05-24T02:38:26.861Z,4
2016-05-24T02:39:27.208Z,4
2016-05-24T02:40:27.258Z,4
2016-05-24T02:41:27.464Z,8
2016-05-24T02:42:27.108Z,8
2016-05-24T02:43:27.063Z,12
2016-05-24T02:44:27.174Z,8
2016-05-24T02:45:27.005Z,12
2016-05-24T02:46:27.024Z,12
2016-05-24T02:47:27.824Z,12
2016-05-24T02:48:26.999Z,16
2016-05-24T02:49:27.313Z,16
2016-05-24T02:50:27.035Z,20
2016-05-24T02:51:27.115Z,20
2016-05-24T02:52:27.040Z,16
2016-05-24T02:53:27.981Z,20
2016-05-24T02:54:27.421Z,20
2016-05-24T02:55:27.548Z,24
2016-05-24T02:56:27.379Z,32
2016-05-24T02:57:26.710Z,36
2016-05-24T02:58:27.198Z,36
2016-05-24T02:59:27.387Z,40
2016-05-24T03:00:55.546Z,48
2016-05-24T03:01:27.111Z,56
2016-05-24T03:02:27.270Z,68
2016-05-24T03:03:28.039Z,76
2016-05-24T03:04:27.339Z,76
2016-05-24T03:05:27.450Z,72
2016-05-24T03:06:27.203Z,76
2016-05-24T03:07:27.269Z,68
2016-05-24T03:08:26.974Z,68
2016-05-24T03:09:27.164Z,80
2016-05-24T03:10:41.355Z,92
2016-05-24T03:11:27.497Z,100
2016-05-24T03:12:27.485Z,112
2016-05-24T03:13:26.877Z,136
2016-05-24T03:14:41.427Z,192
2016-05-24T03:15:27.180Z,244
2016-05-24T03:16:28.011Z,268
2016-05-24T03:17:41.436Z,272
2016-05-24T03:18:27.173Z,272
2016-05-24T03:20:27.412Z,292
2016-05-24T03:21:27.462Z,332
2016-05-24T03:22:41.465Z,368
2016-05-24T03:23:27.624Z,396
2016-05-24T03:24:41.923Z,472
2016-05-24T03:25:27.457Z,548
2016-05-24T03:26:27.648Z,592
2016-05-24T03:27:27.697Z,604
2016-05-24T03:28:27.715Z,628
2016-05-24T03:29:27.578Z,628
2016-05-24T03:30:27.501Z,596
2016-05-24T03:31:27.692Z,552
2016-05-24T03:32:27.914Z,544
2016-05-24T03:33:27.900Z,608
2016-05-24T03:34:27.497Z,744
2016-05-24T03:35:27.719Z,888
2016-05-24T03:36:27.502Z,1004
2016-05-24T03:37:41.303Z,1048
2016-05-24T03:38:27.898Z,1028
2016-05-24T03:39:27.995Z,1108
2016-05-24T03:40:41.622Z,1088
2016-05-24T03:41:27.625Z,1008
2016-05-24T03:42:27.565Z,864
2016-05-24T03:43:28.037Z,752
2016-05-24T03:44:27.696Z,808
2016-05-24T03:45:27.480Z,980
2016-05-24T03:46:27.591Z,1024
2016-05-24T03:48:27.612Z,1100
2016-05-24T03:49:27.835Z,1160
2016-05-24T03:50:27.618Z,1216
2016-05-24T03:51:27.699Z,1328
2016-05-24T03:52:27.654Z,1464
2016-05-24T03:53:28.080Z,1468
2016-05-24T03:54:27.691Z,1456
2016-05-24T03:55:27.663Z,1404
2016-05-24T03:56:27.900Z,1396
2016-05-24T03:57:27.715Z,1440
2016-05-24T03:58:27.702Z,1504
2016-05-24T03:59:27.704Z,1592
2016-05-24T04:00:28.426Z,1648
2016-05-24T04:01:27.929Z,1628
2016-05-24T04:02:27.775Z,1544
2016-05-24T04:03:27.778Z,1416
2016-05-24T04:04:27.953Z,1304
2016-05-24T04:05:27.956Z,1332
2016-05-24T04:06:27.755Z,1496
2016-05-24T04:07:27.523Z,1656
2016-05-24T04:08:27.775Z,1808
2016-05-24T04:09:27.325Z,1928
2016-05-24T04:10:28.031Z,2048
2016-05-24T04:11:27.612Z,2216
2016-05-24T04:12:28.458Z,2404
2016-05-24T04:13:27.992Z,2576
2016-05-24T04:14:28.104Z,2708
2016-05-24T04:15:28.232Z,2724
2016-05-24T04:16:28.173Z,2644
2016-05-24T04:17:41.957Z,2492
2016-05-24T04:18:27.741Z,2436
2016-05-24T04:19:27.758Z,2428
2016-05-24T04:20:27.760Z,2452
2016-05-24T04:21:27.921Z,2476
2016-05-24T04:22:41.985Z,2460
2016-05-24T04:23:28.348Z,2484
2016-05-24T04:24:27.976Z,2492
2016-05-24T04:25:28.196Z,2512
2016-05-24T04:26:28.152Z,2564
2016-05-24T04:27:42.139Z,2696
2016-05-24T04:28:42.033Z,2804
2016-05-24T04:29:27.973Z,2916
2016-05-24T04:30:28.648Z,3092
2016-05-24T04:31:28.025Z,3220
2016-05-24T04:32:27.715Z,3272
2016-05-24T04:33:28.031Z,3200
2016-05-24T04:34:28.049Z,3032
2016-05-24T04:35:28.255Z,2828
2016-05-24T04:36:28.054Z,2852
2016-05-24T04:37:28.681Z,3092
2016-05-24T04:39:28.094Z,4048
2016-05-24T04:40:28.706Z,4444
2016-05-24T04:41:28.317Z,4684
2016-05-24T04:42:28.305Z,4736
2016-05-24T04:44:28.342Z,5440
2016-05-24T04:45:28.469Z,6116
2016-05-24T04:46:42.238Z,6800
2016-05-24T04:47:41.724Z,7104
2016-05-24T04:48:28.008Z,7220
2016-05-24T04:49:42.667Z,7108
2016-05-24T04:50:42.311Z,6968
2016-05-24T04:51:28.220Z,6988
2016-05-24T04:52:28.222Z,6924
2016-05-24T04:53:42.490Z,6092
2016-05-24T04:54:28.071Z,6072
2016-05-24T04:55:28.418Z,6120
2016-05-24T04:56:28.265Z,5812
2016-05-24T04:57:28.252Z,5660
2016-05-24T04:58:28.520Z,5600
2016-05-24T04:59:27.834Z,5812
2016-05-24T05:00:28.557Z,6088
2016-05-24T05:01:28.746Z,6040
2016-05-24T05:02:28.343Z,6272
2016-05-24T05:03:42.393Z,7060
2016-05-24T05:04:28.942Z,7144
2016-05-24T05:05:28.523Z,7096
2016-05-24T05:06:28.369Z,6848
2016-05-24T05:07:28.559Z,6688
2016-05-24T05:08:28.359Z,6812
2016-05-24T05:09:28.362Z,7264
2016-05-24T05:10:28.317Z,7792
2016-05-24T05:11:28.633Z,7520
2016-05-24T05:12:28.120Z,8216
2016-05-24T05:13:28.483Z,8428
2016-05-24T05:14:28.625Z,8436
2016-05-24T05:15:29.800Z,8464
2016-05-24T05:16:28.474Z,9060
2016-05-24T05:17:28.289Z,9696
2016-05-24T05:18:28.667Z,9872
2016-05-24T05:19:28.499Z,10728
2016-05-24T05:20:28.313Z,11192
2016-05-24T05:21:28.519Z,11472
2016-05-24T05:22:28.725Z,11888
2016-05-24T05:23:28.525Z,12228
2016-05-24T05:24:28.745Z,12456
2016-05-24T05:25:28.733Z,12652
2016-05-24T05:26:29.205Z,13040
2016-05-24T05:27:28.348Z,13768
2016-05-24T05:28:28.631Z,14464
2016-05-24T05:29:42.868Z,14944
2016-05-24T05:30:42.778Z,15240
2016-05-24T05:31:28.624Z,15420
2016-05-24T05:32:42.548Z,15808
2016-05-24T05:33:28.833Z,16096
2016-05-24T05:35:28.509Z,16576
2016-05-24T05:36:29.091Z,17120
2016-05-24T05:37:28.640Z,16960
2016-05-24T05:38:28.892Z,16736
2016-05-24T05:39:28.708Z,16544
2016-05-24T05:40:28.742Z,16448
2016-05-24T05:42:43.013Z,14724
2016-05-24T05:43:28.766Z,14216
2016-05-24T05:44:28.956Z,13732
2016-05-24T05:45:42.693Z,13092
2016-05-24T05:46:43.024Z,13140
2016-05-24T05:47:29.416Z,13288
2016-05-24T05:48:43.122Z,13320
2016-05-24T05:49:29.126Z,13428
2016-05-24T05:50:29.207Z,13492
2016-05-24T05:51:28.506Z,13564
2016-05-24T05:52:28.680Z,13384
2016-05-24T05:53:29.058Z,13412
2016-05-24T05:54:28.935Z,13420
2016-05-24T05:55:29.548Z,13284
2016-05-24T05:56:29.129Z,13392
2016-05-24T05:57:28.960Z,13516
2016-05-24T05:58:28.321Z,13628
2016-05-24T05:59:28.996Z,13852
2016-05-24T06:00:28.780Z,14036
2016-05-24T06:01:28.986Z,14316
2016-05-24T06:02:28.801Z,14564
2016-05-24T06:03:28.631Z,14304
2016-05-24T06:04:29.182Z,14416
2016-05-24T06:05:29.418Z,14440
2016-05-24T06:06:28.796Z,14832
2016-05-24T06:07:29.064Z,14956
2016-05-24T06:08:43.301Z,14232
2016-05-24T07:13:10.506Z,14524
2016-05-24T07:13:23.634Z,15064
2016-05-24T07:14:23.886Z,18368
2016-05-24T07:15:37.903Z,19616
2016-05-24T07:16:23.875Z,18720
2016-05-24T07:17:23.659Z,17920
2016-05-24T07:18:23.911Z,15604
2016-05-24T07:19:38.321Z,13212
2016-05-24T07:20:24.152Z,13128
2016-05-24T07:21:23.952Z,12888
2016-05-24T07:22:24.141Z,12672
2016-05-24T07:23:38.332Z,12896
2016-05-24T07:24:23.819Z,13816
2016-05-24T07:25:24.072Z,14568
2016-05-24T07:26:37.965Z,15436
2016-05-24T07:27:24.046Z,16160
2016-05-24T07:28:24.283Z,16480
2016-05-24T07:29:24.348Z,16224
2016-05-24T07:30:23.976Z,17024
2016-05-24T07:31:24.103Z,17280
2016-05-24T07:32:24.059Z,16160
2016-05-24T07:33:23.968Z,14216
2016-05-24T07:34:24.752Z,13312
2016-05-24T07:35:24.020Z,13356
2016-05-24T07:36:24.038Z,13648
2016-05-24T07:37:38.307Z,15160
2016-05-24T07:38:24.341Z,16448
2016-05-24T07:39:24.531Z,18336
2016-05-24T07:40:23.846Z,18528
2016-05-24T07:41:24.286Z,17344
2016-05-24T07:42:24.086Z,16384
2016-05-24T07:43:24.823Z,15372
2016-05-24T07:45:25.079Z,15172
2016-05-24T07:46:24.315Z,16204
2016-05-24T07:48:24.353Z,19296
2016-05-24T07:49:24.761Z,20288
2016-05-24T07:50:27.405Z,21024
2016-05-24T07:51:24.736Z,21888
2016-05-24T07:52:38.441Z,23744
2016-05-24T07:53:24.881Z,24128
2016-05-24T07:54:24.383Z,22432
2016-05-24T07:55:24.933Z,19040
2016-05-24T07:56:24.402Z,14268
2016-05-24T07:57:24.249Z,12504
2016-05-24T07:58:24.361Z,12380
2016-05-24T07:59:24.566Z,11848
2016-05-24T08:00:25.759Z,12488
2016-05-24T08:01:24.649Z,12292
2016-05-24T08:02:24.512Z,12796
2016-05-24T08:03:52.643Z,14636
2016-05-24T08:04:24.518Z,14820
2016-05-24T08:05:26.663Z,16704
2016-05-24T08:07:24.744Z,18720
2016-05-24T08:08:24.090Z,20096
2016-05-24T08:09:38.331Z,22560
2016-05-24T08:10:27.068Z,22848
2016-05-24T08:11:24.912Z,21056
2016-05-24T08:12:24.711Z,19360
2016-05-24T08:13:24.026Z,18752
2016-05-24T08:14:38.547Z,17888
2016-05-24T08:15:26.612Z,16768
2016-05-24T08:16:24.440Z,16288
2016-05-24T08:17:24.350Z,16736
2016-05-24T08:18:24.868Z,17312
2016-05-24T08:19:24.495Z,18624
2016-05-24T08:20:26.750Z,20576
2016-05-24T08:21:25.156Z,22208
2016-05-24T08:22:25.067Z,22976
2016-05-24T08:23:24.631Z,23072
2016-05-24T08:24:25.072Z,19968
2016-05-24T08:25:25.028Z,18432
2016-05-24T08:26:39.157Z,20320
2016-05-24T08:28:24.972Z,25056
2016-05-24T08:29:24.819Z,25344
2016-05-24T08:30:25.775Z,25056
2016-05-24T08:32:25.202Z,26880
2016-05-24T08:33:25.174Z,25856
2016-05-24T08:34:25.145Z,24192
2016-05-24T08:36:24.994Z,22464
2016-05-24T08:37:39.093Z,22816
2016-05-24T08:38:24.765Z,22592
2016-05-24T08:39:25.080Z,21664
2016-05-24T08:40:28.148Z,20480
2016-05-24T08:41:24.601Z,19360
2016-05-24T08:42:24.729Z,17984
2016-05-24T08:43:39.141Z,15668
2016-05-24T08:44:25.157Z,13616
2016-05-24T08:45:28.084Z,12188
2016-05-24T08:46:25.099Z,12072
2016-05-24T08:47:25.133Z,12780
2016-05-24T08:48:25.745Z,13600
2016-05-24T08:49:25.091Z,14464
2016-05-24T08:50:26.750Z,16416
2016-05-24T08:51:25.660Z,17312
2016-05-24T08:52:25.225Z,18144
2016-05-24T08:53:25.305Z,20736
2016-05-24T08:54:25.214Z,22944
2016-05-24T08:55:27.766Z,24032
2016-05-24T08:56:25.454Z,24448
2016-05-24T08:57:25.442Z,24320
2016-05-24T08:58:25.210Z,23840
2016-05-24T08:59:25.619Z,23776
2016-05-24T09:00:28.749Z,23712
2016-05-24T09:01:39.252Z,24192
2016-05-24T09:02:25.471Z,24736
2016-05-24T09:03:25.019Z,25568
2016-05-24T09:04:25.461Z,26656
2016-05-24T09:05:26.650Z,27936
2016-05-24T09:07:25.374Z,29600
2016-05-24T09:09:38.976Z,28064
2016-05-24T09:10:26.913Z,27584
2016-05-24T09:11:25.463Z,27200
2016-05-24T09:12:25.357Z,26848
2016-05-24T09:13:25.172Z,26432
2016-05-24T09:14:25.503Z,25888
2016-05-24T09:15:26.896Z,25280
2016-05-24T09:16:39.026Z,24832
2016-05-24T09:17:39.154Z,24704
2016-05-24T09:18:39.156Z,24800
2016-05-24T09:19:25.250Z,24960
2016-05-24T09:20:27.222Z,25248
2016-05-24T09:21:25.365Z,25376
2016-05-24T09:22:25.040Z,25568
2016-05-24T09:24:25.358Z,27616
2016-05-24T09:25:28.017Z,27072
2016-05-24T09:26:25.379Z,27360
2016-05-24T09:27:25.397Z,29408
2016-05-24T09:28:26.571Z,28288
2016-05-24T09:29:25.653Z,28256
2016-05-24T09:30:27.608Z,27872
2016-05-24T09:31:26.814Z,28064
2016-05-24T09:32:26.020Z,27968
2016-05-24T09:33:25.460Z,29344
2016-05-24T09:34:25.885Z,29696
2016-05-24T09:35:26.231Z,28800
2016-05-24T09:36:39.860Z,27648
2016-05-24T09:37:25.814Z,26816
2016-05-24T09:38:26.224Z,25760
2016-05-24T09:39:25.601Z,24864
2016-05-24T09:40:26.479Z,24608
2016-05-24T09:41:25.794Z,24320
2016-05-24T09:42:26.281Z,24768
2016-05-24T09:43:25.706Z,24704
2016-05-24T09:44:40.007Z,24544
2016-05-24T09:45:38.823Z,24640
2016-05-24T09:46:27.135Z,24736
2016-05-24T09:47:25.716Z,25152
2016-05-24T09:48:26.438Z,24768
2016-05-24T09:49:27.488Z,24352
2016-05-24T09:50:29.520Z,23776
2016-05-24T09:51:27.149Z,21344
2016-05-24T09:52:25.870Z,18944
2016-05-24T09:53:25.983Z,16928
2016-05-24T09:54:39.988Z,16352
2016-05-24T09:55:28.831Z,16608
2016-05-24T09:56:27.819Z,15904
2016-05-24T09:57:25.978Z,15744
2016-05-24T09:58:25.886Z,16864
2016-05-24T09:59:25.889Z,19360
2016-05-24T10:00:30.642Z,21408
2016-05-24T10:01:26.598Z,23072
2016-05-24T10:02:25.960Z,24480
2016-05-24T10:03:26.635Z,25792
2016-05-24T10:04:40.311Z,27104
2016-05-24T10:05:41.079Z,27744
2016-05-24T10:06:40.065Z,28352
2016-05-24T10:07:26.018Z,28416
2016-05-24T10:08:26.855Z,27520
2016-05-24T10:09:25.973Z,25600
2016-05-24T10:10:26.467Z,24224
2016-05-24T10:11:26.648Z,23232
2016-05-24T10:12:26.663Z,22208
2016-05-24T10:13:26.299Z,21632
2016-05-24T10:14:25.920Z,22272
2016-05-24T10:15:29.117Z,23392
2016-05-24T10:16:40.183Z,24672
2016-05-24T10:17:27.339Z,25344
2016-05-24T10:18:26.923Z,25024
2016-05-24T10:19:26.350Z,25632
2016-05-24T10:20:26.668Z,25312
2016-05-24T10:21:26.377Z,24512
2016-05-24T10:22:27.100Z,23776
2016-05-24T10:23:26.432Z,23136
2016-05-24T10:24:27.748Z,21856
2016-05-24T10:25:30.392Z,19904
2016-05-24T10:26:26.271Z,17792
2016-05-24T10:28:41.468Z,14708
2016-05-24T10:29:27.453Z,13100
2016-05-24T10:30:41.287Z,13264
2016-05-24T10:31:26.521Z,13888
2016-05-24T10:32:27.227Z,15424
2016-05-24T10:33:26.637Z,18048
2016-05-24T10:34:27.279Z,20928
2016-05-24T10:35:28.360Z,23904
2016-05-24T10:36:26.769Z,27168
2016-05-24T10:37:29.006Z,31200
2016-05-24T10:38:27.431Z,34912
2016-05-24T10:39:27.090Z,38496
2016-05-24T10:40:28.311Z,39040
2016-05-24T10:41:26.767Z,38496
2016-05-24T10:42:28.270Z,35936
2016-05-24T10:43:26.256Z,33088
2016-05-24T10:44:27.134Z,30560
2016-05-24T10:45:28.903Z,28896
2016-05-24T10:46:27.733Z,27520
2016-05-24T10:47:28.486Z,26560
2016-05-24T10:48:26.786Z,28160
2016-05-24T10:49:26.930Z,30816
2016-05-24T10:50:26.900Z,33440
2016-05-24T10:51:26.747Z,34752
2016-05-24T10:52:29.063Z,34944
2016-05-24T10:53:26.986Z,35744
2016-05-24T10:54:41.226Z,37664
2016-05-24T10:55:29.085Z,38272
2016-05-24T10:56:26.760Z,36416
2016-05-24T10:57:41.110Z,32928
2016-05-24T10:58:27.875Z,30144
2016-05-24T10:59:26.971Z,28736
2016-05-24T11:00:28.927Z,29664
2016-05-24T11:01:26.836Z,30240
2016-05-24T11:02:42.467Z,29888
2016-05-24T11:03:41.626Z,29920
2016-05-24T11:04:27.157Z,30016
2016-05-24T11:05:29.129Z,29152
2016-05-24T11:06:27.787Z,28832
2016-05-24T11:07:30.462Z,27808
2016-05-24T11:08:27.965Z,27584
2016-05-24T11:09:27.623Z,27040
2016-05-24T11:10:27.126Z,25856
2016-05-24T11:11:27.567Z,23968
2016-05-24T11:12:41.650Z,21760
2016-05-24T11:13:26.994Z,22016
2016-05-24T11:14:27.917Z,25856
2016-05-24T11:15:27.984Z,30112
2016-05-24T11:16:42.222Z,35168
2016-05-24T11:17:28.941Z,35744
2016-05-24T11:18:28.101Z,34464
2016-05-24T11:19:27.728Z,32736
2016-05-24T11:20:28.731Z,30304
2016-05-24T11:21:42.064Z,25888
2016-05-24T11:22:27.846Z,22688
2016-05-24T11:23:27.896Z,19072
2016-05-24T11:24:27.914Z,16288
2016-05-24T11:25:27.744Z,14984
2016-05-24T11:26:27.419Z,14272
2016-05-24T11:27:27.422Z,14172
2016-05-24T11:28:27.424Z,13340
2016-05-24T11:29:27.427Z,11904
2016-05-24T11:31:27.464Z,10336
2016-05-24T11:32:27.482Z,10156
2016-05-24T11:33:27.657Z,10216
2016-05-24T11:34:27.379Z,10580
2016-05-24T11:35:27.710Z,10860
2016-05-24T11:36:27.618Z,10404
2016-05-24T11:37:27.761Z,9936
2016-05-24T11:39:27.470Z,9804
2016-05-24T11:40:27.895Z,9924
2016-05-24T11:41:27.537Z,9920
2016-05-24T11:42:27.603Z,10264
2016-05-24T11:43:27.981Z,10940
2016-05-24T11:45:27.970Z,13084
2016-05-24T11:46:27.925Z,14576
2016-05-24T11:47:28.022Z,15652
2016-05-24T11:48:28.228Z,16576
2016-05-24T11:49:27.747Z,17376
2016-05-24T11:50:27.687Z,17248
2016-05-24T11:51:27.925Z,16032
2016-05-24T11:52:28.019Z,14968
2016-05-24T11:53:28.336Z,14492
2016-05-24T11:54:27.980Z,14316
2016-05-24T11:55:27.669Z,14236
2016-05-24T11:56:28.297Z,14368
2016-05-24T11:57:42.802Z,15008
2016-05-24T11:58:28.286Z,15872
2016-05-24T11:59:28.258Z,17152
2016-05-24T12:00:29.448Z,18560
2016-05-24T12:01:42.329Z,18688
2016-05-24T12:02:28.251Z,17760
2016-05-24T12:03:28.206Z,15192
2016-05-24T12:04:28.256Z,14700
2016-05-24T12:05:28.165Z,14212
2016-05-24T12:06:28.324Z,14280
2016-05-24T12:07:28.310Z,13496
2016-05-24T12:08:42.473Z,13120
2016-05-24T12:09:28.051Z,13100
2016-05-24T12:10:28.179Z,13684
2016-05-24T12:11:29.087Z,14160
2016-05-24T12:12:28.434Z,15132
2016-05-24T12:13:28.264Z,16480
2016-05-24T12:14:28.064Z,17472
2016-05-24T12:15:28.723Z,18112
2016-05-24T12:16:28.194Z,18368
2016-05-24T12:17:27.994Z,18336
2016-05-24T12:18:28.403Z,18784
2016-05-24T12:19:28.203Z,19616
2016-05-24T12:20:28.049Z,20128
2016-05-24T12:21:28.691Z,20544
2016-05-24T12:22:29.258Z,20960
2016-05-24T12:23:28.760Z,21440
2016-05-24T12:24:28.435Z,22208
2016-05-24T12:25:28.562Z,23136
2016-05-24T12:26:28.253Z,24160
2016-05-24T12:27:28.255Z,24192
2016-05-24T12:28:28.101Z,23648
2016-05-24T12:29:28.323Z,23008
2016-05-24T12:30:28.201Z,22560
2016-05-24T12:31:28.375Z,22176
2016-05-24T12:32:29.269Z,24608
2016-05-24T12:33:28.380Z,26720
2016-05-24T12:34:28.415Z,26784
2016-05-24T12:35:29.074Z,25408
2016-05-24T12:36:28.249Z,23232
2016-05-24T12:37:28.938Z,19296
2016-05-24T12:38:28.473Z,17952
2016-05-24T12:39:28.834Z,14460
2016-05-24T12:40:28.149Z,10628
2016-05-24T12:41:28.481Z,9384
2016-05-24T12:42:29.123Z,8840
2016-05-24T12:43:28.486Z,9148
2016-05-24T12:44:28.503Z,10100
2016-05-24T12:45:28.772Z,11088
2016-05-24T12:46:28.995Z,12252
2016-05-24T12:47:28.293Z,11092
2016-05-24T12:48:28.608Z,10464
2016-05-24T12:49:28.627Z,10852
2016-05-24T12:50:28.505Z,10944
2016-05-24T12:51:28.461Z,11900
2016-05-24T12:52:28.698Z,13400
2016-05-24T12:53:29.591Z,14432
2016-05-24T12:54:28.969Z,15088
2016-05-24T12:55:28.253Z,15204
2016-05-24T12:56:29.708Z,15748
2016-05-24T12:57:28.867Z,15952
2016-05-24T12:58:43.404Z,14916
2016-05-24T13:00:29.032Z,13740
2016-05-24T13:01:28.799Z,13876
2016-05-24T13:02:28.865Z,15028
2016-05-24T13:03:29.055Z,16672
2016-05-24T13:04:28.651Z,17696
2016-05-24T13:05:29.045Z,18688
2016-05-24T13:06:29.063Z,19648
2016-05-24T13:07:28.457Z,20608
2016-05-24T13:08:43.102Z,20960
2016-05-24T13:09:30.306Z,20352
2016-05-24T13:10:28.589Z,19680
2016-05-24T13:11:29.702Z,18720
2016-05-24T13:12:29.189Z,18368
2016-05-24T13:13:29.379Z,18016
2016-05-24T13:14:30.679Z,11532
2016-05-24T13:15:43.278Z,12428
2016-05-24T13:16:29.325Z,14108
2016-05-24T13:17:29.217Z,10368
2016-05-24T13:18:29.220Z,7568
2016-05-24T13:19:31.692Z,9280
2016-05-24T13:20:43.525Z,10104
2016-05-24T13:21:29.134Z,8776
2016-05-24T13:22:29.106Z,9124
2016-05-24T13:23:29.264Z,8712
2016-05-24T13:24:43.145Z,6880
2016-05-24T13:25:29.302Z,6060
2016-05-24T13:26:29.491Z,6916
2016-05-24T13:27:28.964Z,6964
2016-05-24T13:28:29.279Z,6424
2016-05-24T13:29:29.438Z,7052
2016-05-24T13:31:29.083Z,6168
2016-05-24T13:32:29.696Z,4920
2016-05-24T13:34:30.216Z,5760
2016-05-24T13:35:29.219Z,5692
2016-05-24T13:36:29.300Z,5744
2016-05-24T13:37:29.271Z,5192
2016-05-24T13:38:29.321Z,6008
2016-05-24T13:39:30.652Z,6708
2016-05-24T13:40:29.826Z,5968
2016-05-24T13:41:29.298Z,5496
2016-05-24T13:42:29.285Z,6252
2016-05-24T13:43:29.568Z,5656
2016-05-24T13:44:29.415Z,5296
2016-05-24T13:45:29.542Z,5728
2016-05-24T13:47:29.393Z,5764
2016-05-24T13:48:43.475Z,5852
2016-05-24T13:49:29.475Z,5232
2016-05-24T13:50:29.384Z,4872
2016-05-24T13:51:29.419Z,4128
2016-05-24T13:52:29.796Z,3772
2016-05-24T13:53:29.517Z,4428
2016-05-24T13:54:43.961Z,4716
2016-05-24T13:55:29.539Z,4268
2016-05-24T13:56:29.728Z,4324
2016-05-24T13:57:29.528Z,4432
2016-05-24T13:58:29.358Z,4216
2016-05-24T13:59:29.549Z,4216
2016-05-24T14:00:29.927Z,4476
2016-05-24T14:01:29.586Z,4160
2016-05-24T14:02:29.402Z,3680
2016-05-24T14:03:29.763Z,3984
2016-05-24T14:04:29.593Z,4156
2016-05-24T14:05:29.566Z,4260
2016-05-24T14:06:29.600Z,4316
2016-05-24T14:07:43.699Z,3976
2016-05-24T14:08:29.871Z,3696
2016-05-24T14:09:28.967Z,3544
2016-05-24T14:10:29.641Z,3520
2016-05-24T14:11:29.488Z,3524
2016-05-24T14:12:29.865Z,3168
2016-05-24T14:13:29.899Z,3404
2016-05-24T14:14:29.745Z,3912
2016-05-24T14:15:31.295Z,4588
2016-05-24T14:16:29.720Z,4712
2016-05-24T14:17:29.770Z,4848
2016-05-24T14:18:29.976Z,5344
2016-05-24T14:19:29.994Z,6296
2016-05-24T14:21:29.968Z,5100
2016-05-24T14:22:29.643Z,5624
2016-05-24T14:24:30.429Z,5072
2016-05-24T14:25:30.026Z,5364
2016-05-24T14:26:43.734Z,5864
2016-05-24T14:27:30.016Z,5932
2016-05-24T14:28:29.831Z,5960
2016-05-24T14:29:29.927Z,6112
2016-05-24T14:30:29.711Z,5988
2016-05-24T14:31:30.276Z,6004
2016-05-24T14:32:30.372Z,6152
2016-05-24T14:33:30.344Z,5404
2016-05-24T14:34:44.241Z,4664
2016-05-24T14:35:44.446Z,4520
2016-05-24T14:36:29.680Z,4348
2016-05-24T14:37:29.948Z,4664
2016-05-24T14:38:30.202Z,4720
2016-05-24T14:39:29.829Z,4492
2016-05-24T14:40:29.706Z,4348
2016-05-24T14:41:43.931Z,4076
2016-05-24T14:42:30.431Z,4200
2016-05-24T14:43:30.012Z,4452
2016-05-24T14:44:29.874Z,4324
2016-05-24T14:45:29.970Z,4096
2016-05-24T14:46:30.098Z,3584
2016-05-24T14:47:30.069Z,3416
2016-05-24T14:48:30.072Z,3176
2016-05-24T14:49:29.418Z,3220
2016-05-24T14:50:30.109Z,3292
2016-05-24T14:51:30.126Z,3572
2016-05-24T14:52:30.301Z,3668
2016-05-24T14:53:29.820Z,3924
2016-05-24T14:54:30.166Z,3972
2016-05-24T14:55:30.341Z,3816
2016-05-24T14:56:44.081Z,3772
2016-05-24T14:57:30.175Z,3720
2016-05-24T14:58:30.380Z,3872
2016-05-24T14:59:29.898Z,3660
2016-05-24T15:00:30.104Z,3412
2016-05-24T15:01:30.466Z,3332